This is the latest recevied weather packets stored in our database for station/object OM6ACB-6. If no packets are shown the sender has not sent any weather packets the latest 10 day(s).
| Time | Temp. | Humidity | Pressure | Rain* | Wind** | Luminosity | Snow |
|---|---|---|---|---|---|---|---|
| 1777821214 | 25° C | 20% | 1022 hPa | 0 mm | - | - | - |
| 1777820614 | 23.89° C | 20% | 1021.9 hPa | 0 mm | - | - | - |
| 1777820013 | 25° C | 20% | 1022.2 hPa | 0 mm | - | - | - |
| 1777819413 | 25° C | 20% | 1022.2 hPa | 0 mm | - | - | - |
| 1777818813 | 23.89° C | 21% | 1022.3 hPa | 0 mm | - | - | - |
| 1777818212 | 25° C | 20% | 1022.5 hPa | 0 mm | - | - | - |
| 1777817612 | 24.44° C | 20% | 1022.4 hPa | 0 mm | - | - | - |
| 1777817012 | 23.89° C | 20% | 1022.5 hPa | 0 mm | - | - | - |
| 1777816411 | 25° C | 20% | 1022.8 hPa | 0 mm | - | - | - |
| 1777815811 | 24.44° C | 20% | 1022.8 hPa | 0 mm | - | - | - |
| 1777815211 | 24.44° C | 20% | 1022.9 hPa | 0 mm | - | - | - |
| 1777814611 | 25.56° C | 20% | 1023.2 hPa | 0 mm | - | - | - |
| 1777814010 | 23.89° C | 21% | 1023 hPa | 0 mm | - | - | - |
| 1777813410 | 23.89° C | 20% | 1023.1 hPa | 0 mm | - | - | - |
| 1777812810 | 24.44° C | 20% | 1023.2 hPa | 0 mm | - | - | - |
| 1777812209 | 24.44° C | 20% | 1023.4 hPa | 0 mm | - | - | - |
| 1777811609 | 24.44° C | 20% | 1023.4 hPa | 0 mm | - | - | - |
| 1777811013 | 24.44° C | 20% | 1023.3 hPa | 0 mm | - | - | - |
| 1777810409 | 25.56° C | 20% | 1023.8 hPa | 0 mm | - | - | - |
| 1777809808 | 23.89° C | 21% | 1023.6 hPa | 0 mm | - | - | - |
| 1777809208 | 23.33° C | 21% | 1023.7 hPa | 0 mm | - | - | - |
| 1777808608 | 23.89° C | 21% | 1023.9 hPa | 0 mm | - | - | - |
| 1777808007 | 23.33° C | 21% | 1023.9 hPa | 0 mm | - | - | - |
| 1777807407 | 24.44° C | 20% | 1024.1 hPa | 0 mm | - | - | - |
| 1777806807 | 23.33° C | 21% | 1024 hPa | 0 mm | - | - | - |
* Rain latest hour (hover to see other rain measurements)
** Current wind speed in m/s (hover to see current wind gust speed)